Time;durP1;ratioP1;P1;durP2;ratioP2;P2;SDS_P1;SDS_P2;PMS_P1;PMS_P2;Temp;Humidity;BMP_temperature;BMP_pressure;BME280_temperature;BME280_humidity;BME280_pressure;Samples;Min_cycle;Max_cycle;Signal;HPM_P1;HPM_P2
2022/09/18 00:04:47;;;;;;;13.60;6.30;;;;;;;11.56;100.00;98993.98;657687;1276;139575;-86
2022/09/18 00:19:51;;;;;;;16.30;7.40;;;;;;;11.44;100.00;98986.20;656688;1277;139163;-86
2022/09/18 00:34:54;;;;;;;15.70;7.20;;;;;;;11.21;100.00;98983.77;657602;1276;139451;-86
2022/09/18 00:50:14;;;;;;;14.70;7.30;;;;;;;11.18;100.00;98978.09;658671;1276;139092;-86
2022/09/18 01:05:35;;;;;;;10.90;6.00;;;;;;;11.05;100.00;98980.41;658508;1277;139123;-88
2022/09/18 01:21:00;;;;;;;15.60;8.10;;;;;;;10.93;100.00;98981.73;657441;1276;139668;-87
2022/09/18 01:36:08;;;;;;;12.70;5.30;;;;;;;10.95;100.00;98981.17;658081;1276;139208;-86
2022/09/18 01:51:20;;;;;;;12.70;5.80;;;;;;;11.01;100.00;98983.83;657916;1276;139210;-85
2022/09/18 02:06:31;;;;;;;9.60;5.00;;;;;;;11.02;100.00;98975.30;657323;1278;139324;-88
2022/09/18 02:21:35;;;;;;;10.80;5.70;;;;;;;10.90;100.00;98977.08;658930;1277;139286;-86
2022/09/18 02:37:01;;;;;;;10.20;5.90;;;;;;;10.61;100.00;98971.85;660201;1277;139191;-86
2022/09/18 02:52:13;;;;;;;14.90;9.40;;;;;;;10.48;100.00;98956.02;659254;1277;139697;-86
2022/09/18 03:07:17;;;;;;;14.60;8.70;;;;;;;10.43;100.00;98958.45;660500;1277;139364;-85
2022/09/18 03:22:23;;;;;;;16.00;8.60;;;;;;;10.56;100.00;98970.19;658896;1277;139375;-85
2022/09/18 03:37:27;;;;;;;17.30;9.10;;;;;;;10.87;100.00;98979.58;657240;1277;139000;-85
2022/09/18 03:52:34;;;;;;;16.10;8.60;;;;;;;11.09;100.00;98980.58;658819;1277;139748;-85
2022/09/18 04:07:47;;;;;;;17.80;8.60;;;;;;;11.18;100.00;98980.48;658196;1276;139291;-86
2022/09/18 04:23:13;;;;;;;23.40;11.50;;;;;;;11.28;100.00;98983.95;658643;1276;139344;-85
2022/09/18 04:38:16;;;;;;;20.80;9.90;;;;;;;11.34;100.00;98977.13;660033;1277;140032;-87
2022/09/18 04:53:20;;;;;;;18.60;10.00;;;;;;;11.42;100.00;98980.27;656829;1277;139716;-86
2022/09/18 05:08:23;;;;;;;19.20;11.20;;;;;;;11.57;100.00;98990.36;657797;1277;139589;-87
2022/09/18 05:23:26;;;;;;;20.30;9.30;;;;;;;11.74;100.00;98987.03;658858;1277;139665;-88
2022/09/18 05:38:32;;;;;;;20.10;10.70;;;;;;;11.81;100.00;98982.52;658859;1277;139097;-89
2022/09/18 05:53:35;;;;;;;24.50;10.50;;;;;;;11.96;100.00;98974.20;658592;1276;139459;-86
2022/09/18 06:08:43;;;;;;;22.20;10.50;;;;;;;11.99;100.00;98974.73;658231;1276;139774;-88
2022/09/18 06:23:48;;;;;;;18.70;10.50;;;;;;;12.07;100.00;98983.35;658901;1277;139351;-87
2022/09/18 06:39:08;;;;;;;20.50;10.20;;;;;;;12.13;100.00;98992.77;658428;1277;139283;-86
2022/09/18 06:54:12;;;;;;;17.10;9.30;;;;;;;12.15;100.00;99003.30;658491;1277;139399;-89
2022/09/18 07:09:15;;;;;;;16.60;10.00;;;;;;;12.30;100.00;99005.94;657785;1277;139586;-89
2022/09/18 07:24:28;;;;;;;18.80;9.20;;;;;;;12.22;100.00;99007.95;657994;1277;139759;-88
2022/09/18 07:39:32;;;;;;;18.20;10.80;;;;;;;12.30;100.00;99003.34;658314;1277;139448;-88
2022/09/18 07:54:54;;;;;;;14.80;10.20;;;;;;;12.53;100.00;98998.77;658712;1277;139500;-88
2022/09/18 08:10:05;;;;;;;14.80;8.70;;;;;;;12.73;100.00;99002.04;658856;1276;139436;-89
2022/09/18 08:25:19;;;;;;;15.60;9.80;;;;;;;12.74;100.00;99005.64;658722;1276;139298;-88
2022/09/18 08:40:48;;;;;;;15.70;9.00;;;;;;;12.84;100.00;99015.16;658615;1277;139429;-89
2022/09/18 08:55:56;;;;;;;36.40;22.10;;;;;;;12.77;100.00;99022.96;662100;1277;139717;-90
2022/09/18 09:11:51;;;;;;;243.40;93.60;;;;;;;12.70;100.00;99026.75;661688;1277;139935;-89
2022/09/18 09:26:58;;;;;;;34.10;18.10;;;;;;;12.73;100.00;99030.83;659132;1277;140053;-88
2022/09/18 09:42:33;;;;;;;19.20;10.90;;;;;;;12.65;100.00;99041.16;657669;1277;139344;-88
2022/09/18 09:57:58;;;;;;;32.50;19.90;;;;;;;12.65;100.00;99057.31;657697;1277;139330;-88
2022/09/18 10:13:25;;;;;;;43.20;29.20;;;;;;;12.65;100.00;99075.00;659108;1277;139474;-86
2022/09/18 10:28:31;;;;;;;22.10;12.80;;;;;;;12.48;100.00;99089.09;659509;1277;139771;-85
2022/09/18 10:44:00;;;;;;;23.10;15.00;;;;;;;12.35;100.00;99098.10;659662;1276;139469;-84
2022/09/18 10:59:27;;;;;;;18.70;11.30;;;;;;;12.37;100.00;99102.42;657454;1277;140010;-85
2022/09/18 11:14:40;;;;;;;23.70;13.70;;;;;;;12.41;100.00;99105.35;658415;1277;139988;-85
2022/09/18 11:29:49;;;;;;;102.60;43.80;;;;;;;12.61;100.00;99105.33;656791;1277;139720;-84
2022/09/18 11:45:18;;;;;;;21.40;15.20;;;;;;;12.72;100.00;99101.45;656629;1277;1552781;-85
2022/09/18 12:00:28;;;;;;;62.90;29.60;;;;;;;12.74;100.00;99087.16;657244;1277;140336;-86
2022/09/18 12:15:39;;;;;;;20.00;10.60;;;;;;;12.96;100.00;99080.56;656992;1277;139314;-86
2022/09/18 12:31:03;;;;;;;19.60;12.00;;;;;;;13.13;100.00;99081.23;657796;1277;139462;-86
2022/09/18 12:46:19;;;;;;;21.60;14.90;;;;;;;13.25;100.00;99077.70;657983;1277;139551;-85
2022/09/18 13:01:33;;;;;;;26.90;13.30;;;;;;;13.29;100.00;99081.08;659753;1277;151016;-84
2022/09/18 13:16:44;;;;;;;17.80;10.00;;;;;;;13.37;100.00;99078.56;656694;1277;139329;-84
2022/09/18 13:31:53;;;;;;;36.30;19.00;;;;;;;13.51;100.00;99096.02;657847;1277;139529;-85
2022/09/18 13:47:12;;;;;;;48.80;23.70;;;;;;;13.46;100.00;99110.70;657576;1277;139397;-85
2022/09/18 14:02:29;;;;;;;21.40;13.50;;;;;;;13.67;100.00;99115.75;658154;1277;139388;-84
2022/09/18 14:17:35;;;;;;;18.20;10.50;;;;;;;13.68;100.00;99114.67;657755;1277;139490;-85
2022/09/18 14:32:43;;;;;;;17.00;10.50;;;;;;;13.65;100.00;99106.56;657877;1277;140089;-85
2022/09/18 14:47:49;;;;;;;14.70;9.10;;;;;;;13.77;100.00;99098.80;658173;1277;139367;-85
2022/09/18 15:02:58;;;;;;;12.00;8.90;;;;;;;13.86;100.00;99097.60;658528;1275;139373;-84
2022/09/18 15:18:02;;;;;;;11.40;7.80;;;;;;;16.22;100.00;99093.97;657983;1275;139127;-85
2022/09/18 15:33:18;;;;;;;12.80;7.80;;;;;;;15.36;100.00;99094.14;656742;1275;139172;-85
2022/09/18 15:48:49;;;;;;;25.20;13.40;;;;;;;14.54;100.00;99097.59;658768;1277;139239;-85
2022/09/18 16:04:25;;;;;;;28.00;17.90;;;;;;;14.42;100.00;99095.83;659610;1277;139912;-85
2022/09/18 16:19:31;;;;;;;12.90;8.50;;;;;;;13.92;100.00;99104.20;658252;1277;139376;-84
2022/09/18 16:34:35;;;;;;;30.70;14.90;;;;;;;13.57;100.00;99119.93;657601;1277;139756;-84
2022/09/18 16:49:42;;;;;;;13.10;5.40;;;;;;;13.32;100.00;99122.17;657592;1278;139889;-83
2022/09/18 17:04:46;;;;;;;26.00;12.40;;;;;;;13.03;100.00;99128.14;657958;1277;139416;-83
2022/09/18 17:19:51;;;;;;;42.40;22.20;;;;;;;12.97;100.00;99132.98;659040;1277;139394;-89
2022/09/18 17:34:56;;;;;;;45.20;31.90;;;;;;;12.28;100.00;99145.67;661295;1277;139876;-88
2022/09/18 17:50:00;;;;;;;21.00;11.40;;;;;;;12.03;100.00;99154.13;662612;1277;139973;-87
2022/09/18 18:05:05;;;;;;;369.20;111.30;;;;;;;12.04;100.00;99160.63;663567;1277;140042;-87
2022/09/18 18:20:10;;;;;;;45.10;29.40;;;;;;;12.05;100.00;99170.58;659901;1277;140226;-86
2022/09/18 18:35:15;;;;;;;14.00;6.90;;;;;;;12.05;100.00;99171.73;659712;1277;139311;-86
2022/09/18 18:50:20;;;;;;;10.10;5.10;;;;;;;12.01;100.00;99172.27;660656;1277;139201;-87
2022/09/18 19:05:29;;;;;;;5.60;3.40;;;;;;;11.85;100.00;99168.01;659570;1277;139407;-87
2022/09/18 19:20:33;;;;;;;8.20;5.30;;;;;;;11.64;100.00;99169.95;662328;1277;139004;-86
2022/09/18 19:35:37;;;;;;;4.20;2.50;;;;;;;11.61;100.00;99171.02;662178;1277;139435;-88
2022/09/18 19:50:41;;;;;;;4.20;2.70;;;;;;;11.63;100.00;99178.33;661956;1277;139221;-87
2022/09/18 20:05:46;;;;;;;4.30;2.80;;;;;;;11.60;100.00;99178.05;662538;1277;138997;-86
2022/09/18 20:20:50;;;;;;;4.70;2.70;;;;;;;11.59;100.00;99179.62;660608;1277;140044;-87
2022/09/18 20:35:59;;;;;;;6.30;3.30;;;;;;;11.53;100.00;99183.97;661205;1280;139244;-89
2022/09/18 20:51:08;;;;;;;4.70;2.70;;;;;;;11.55;100.00;99180.75;660074;1277;138931;-88
2022/09/18 21:06:14;;;;;;;8.00;3.30;;;;;;;11.43;100.00;99179.70;658097;1277;139476;-90
2022/09/18 21:21:27;;;;;;;5.40;3.10;;;;;;;11.46;100.00;99181.05;659832;1277;139726;-86
2022/09/18 21:36:37;;;;;;;3.90;2.80;;;;;;;11.47;100.00;99181.05;661320;1277;139163;-87
2022/09/18 21:51:41;;;;;;;4.00;2.40;;;;;;;11.44;100.00;99178.19;661814;1277;138899;-86
2022/09/18 22:06:45;;;;;;;4.00;2.40;;;;;;;11.43;100.00;99178.16;661416;1277;140086;-86
2022/09/18 22:21:50;;;;;;;9.30;5.30;;;;;;;11.39;100.00;99179.31;664190;1277;139121;-85
2022/09/18 22:36:55;;;;;;;5.30;3.30;;;;;;;11.38;100.00;99183.21;656964;1277;139138;-88
2022/09/18 22:51:58;;;;;;;9.50;4.80;;;;;;;11.24;100.00;99188.34;656790;1277;139847;-87
2022/09/18 23:07:02;;;;;;;4.90;3.00;;;;;;;11.27;100.00;99186.55;657096;1277;139137;-86
2022/09/18 23:22:08;;;;;;;8.40;4.90;;;;;;;11.29;100.00;99182.45;656889;1277;138933;-87
2022/09/18 23:37:12;;;;;;;15.60;7.80;;;;;;;11.25;100.00;99173.02;657724;1277;138931;-87
2022/09/18 23:52:15;;;;;;;6.00;3.30;;;;;;;11.17;100.00;99174.46;657328;1277;1507139;-88
